Andover, Pennsylvania
Current Conditions -  °F | °C
As of 4:53 PM on Thursday 27 Nov 2014 (Local Time) from KHGR Reporting Station
Broken Clouds Broken Clouds  
Wind Chill: 32°   Ceiling: 7000
Heat Index: 36°   Visibility: 10mi
Dew Point: 28°   Wind: 5mph
Humidity: 73%   Direction: 290°WNW
Pressure: 30.07"   Gusts: NA
Location:  39.973°N, 77.9661°W
Report Text: KHGR 272153Z 29004KT 10SM BKN070 02/M02 A3007 RMK AO2 SLP200 T00221022 $
Loading
Personal Weather Stations






























Interactive Weather Map New forecast layout! Learn more

10-Day Weather Forecast

Advertisements
Track Severe Weather on mobile